Accueil
METAR-TAF:

METAR-TAF

Aéroports :

Jamshedpur, Inde

latitude: 22-48-49N, longitude: 086-10-05E, altitude: 146 m

Observation

Le bulletin a été fait il y a 35 minutes, à 05:00 UTC
Vent 2 kt de ouest
Température 23°C
Humidité 65%
Pression 1019 hPa
Visibilité: 1500 m
Quelques nuages à une hauteur de 2000 ft
Nuages épars à une hauteur de 10000 ft
brume sèche

METAR: VEJS 080500Z 26002KT 1500 HZ FEW020 SCT100 23/16 Q1019

Heure: 11:05 (05:35 UTC)

Prévision

Le bulletin a été fait il y a 3 heures et 35 minutes, à 02:00 UTC
Prévision valable du 08 à 03 UTC au 08 à 12 UTC
Vent kt de nord
Visibilité: 1000 m
Nuages épars à une hauteur de 10000 ft
Brouillard mince, brume
Evoluant progressivement
du 08 à 07 UTC au 08 à 09 UTC
Vent 3 kt de nord/nord-ouest
Visibilité: 3500 m
fumée, brume sèche

TAF: VEJS 080200Z 0803/0812 00000KT 1000 MIFG BR SCT100 BECMG 0807/0809 34003KT 3500 FU HZ

Observations et prévisions météorologiques de plus de 4000 aéroports (messages METAR et TAF).

Les stations disponibles sont représentées par des disques jaunes et rouges sur la carte.

Passer la souris dessus pour voir le nom de la station.

Cliquer dessus pour voir les observations et prévisions météorologiques.

Pour changer de carte: cliquez sur les boutons verts avec une croix noire pour zoomer, sur le bouton vert avec un tiret pour effectuer un zoom arrière, ou sur les flèches vertes pour les cartes adjacentes.


METAR-TAF: